Time;durP1;ratioP1;P1;durP2;ratioP2;P2;SDS_P1;SDS_P2;PMS_P1;PMS_P2;Temp;Humidity;BMP_temperature;BMP_pressure;BME280_temperature;BME280_humidity;BME280_pressure;Samples;Min_cycle;Max_cycle;Signal;HPM_P1;HPM_P2
2022/09/27 00:00:03;;;;;;;6.10;0.95;;;10.00;99.90;;;;;;5080245;28;20052;-59
2022/09/27 00:02:29;;;;;;;7.90;1.40;;;10.20;99.90;;;;;;5080559;28;20045;-59
2022/09/27 00:04:55;;;;;;;7.88;1.27;;;10.00;99.90;;;;;;5079615;28;20086;-59
2022/09/27 00:07:20;;;;;;;9.65;1.48;;;9.80;99.90;;;;;;5080530;28;20056;-59
2022/09/27 00:09:46;;;;;;;10.25;1.70;;;10.20;99.90;;;;;;5079263;28;20513;-59
2022/09/27 00:12:12;;;;;;;12.27;1.20;;;10.30;99.90;;;;;;5080462;28;20040;-59
2022/09/27 00:14:38;;;;;;;9.13;1.02;;;10.20;99.90;;;;;;5079912;28;20108;-58
2022/09/27 00:17:04;;;;;;;7.47;1.10;;;9.80;99.90;;;;;;5079814;28;20096;-58
2022/09/27 00:19:29;;;;;;;7.32;1.20;;;10.30;99.90;;;;;;5080337;28;20037;-56
2022/09/27 00:21:55;;;;;;;11.68;1.00;;;10.30;99.90;;;;;;5077751;28;20077;-58
2022/09/27 00:24:22;;;;;;;8.77;1.00;;;10.10;99.90;;;;;;5079796;28;20564;-58
2022/09/27 00:26:48;;;;;;;7.95;0.93;;;10.00;99.90;;;;;;5079394;28;20038;-58
2022/09/27 00:29:16;;;;;;;7.93;1.50;;;9.90;99.90;;;;;;5061878;28;20036;-58
2022/09/27 00:31:42;;;;;;;9.32;1.15;;;10.40;99.90;;;;;;5079580;28;20492;-58
2022/09/27 00:34:16;;;;;;;7.43;0.90;;;10.00;99.90;;;;;;5079216;28;20079;-58
2022/09/27 00:36:42;;;;;;;8.70;1.10;;;9.80;99.90;;;;;;5080245;28;20051;-58
2022/09/27 00:39:08;;;;;;;6.28;1.02;;;10.00;99.90;;;;;;5062497;28;20530;-58
2022/09/27 00:41:36;;;;;;;7.03;1.00;;;9.60;99.90;;;;;;5075910;28;20037;-58
2022/09/27 00:44:05;;;;;;;5.60;0.98;;;9.60;99.90;;;;;;5078661;28;20090;-58
2022/09/27 00:46:35;;;;;;;8.73;1.08;;;9.80;99.90;;;;;;5079893;28;20138;-58
2022/09/27 00:49:11;;;;;;;8.68;1.10;;;9.50;99.90;;;;;;5079223;28;20493;-57
2022/09/27 00:51:39;;;;;;;6.75;0.90;;;9.60;99.90;;;;;;5078795;28;20055;-58
2022/09/27 00:54:06;;;;;;;9.27;1.05;;;9.60;99.90;;;;;;5079795;28;20118;-58
2022/09/27 00:56:32;;;;;;;8.40;0.85;;;9.40;99.90;;;;;;5077166;28;20130;-57
2022/09/27 00:59:10;;;;;;;6.22;1.00;;;9.60;99.90;;;;;;5079086;28;20057;-58
2022/09/27 01:01:37;;;;;;;6.70;0.95;;;9.90;99.90;;;;;;5079024;28;20657;-58
2022/09/27 01:04:08;;;;;;;5.72;0.80;;;9.90;99.90;;;;;;5079207;28;20468;-58
2022/09/27 01:06:35;;;;;;;8.90;1.20;;;9.90;99.90;;;;;;5079829;28;20080;-58
2022/09/27 01:09:00;;;;;;;4.35;0.85;;;10.00;99.90;;;;;;5078171;28;20118;-59
2022/09/27 01:11:45;;;;;;;5.95;1.63;;;9.90;99.90;;;;;;5079398;28;20040;-58
2022/09/27 01:14:52;;;;;;;6.85;0.95;;;10.00;99.90;;;;;;5078314;28;20127;-58
2022/09/27 01:17:28;;;;;;;6.07;0.98;;;9.70;99.90;;;;;;5078307;28;20044;-58
2022/09/27 01:20:12;;;;;;;9.43;1.42;;;9.70;99.90;;;;;;5079137;28;20136;-58
2022/09/27 01:22:46;;;;;;;7.05;1.02;;;10.00;99.90;;;;;;5078434;28;20052;-58
2022/09/27 01:25:33;;;;;;;8.63;1.17;;;9.70;99.90;;;;;;5079284;28;20037;-58
2022/09/27 01:28:25;;;;;;;7.35;0.90;;;9.60;99.90;;;;;;5077728;28;20053;-59
2022/09/27 01:31:08;;;;;;;12.88;1.40;;;9.90;99.90;;;;;;5078383;28;20055;-58
2022/09/27 01:33:39;;;;;;;8.10;1.08;;;10.00;99.90;;;;;;5079131;28;20045;-59
2022/09/27 01:36:15;;;;;;;8.40;1.33;;;9.90;99.90;;;;;;5077896;28;20032;-58
2022/09/27 01:38:40;;;;;;;6.68;1.30;;;10.00;99.90;;;;;;5065726;28;20108;-59
2022/09/27 01:41:12;;;;;;;3.33;0.80;;;9.90;99.90;;;;;;5072593;28;20048;-61
2022/09/27 01:43:52;;;;;;;6.95;1.20;;;10.00;99.90;;;;;;5078162;28;20040;-63
2022/09/27 01:46:26;;;;;;;6.72;0.85;;;9.90;99.90;;;;;;5079139;28;20595;-64
2022/09/27 01:48:54;;;;;;;8.43;1.95;;;9.80;99.90;;;;;;5078264;28;20059;-63
2022/09/27 01:51:31;;;;;;;6.95;1.00;;;9.80;99.90;;;;;;5078931;28;20040;-63
2022/09/27 01:54:01;;;;;;;6.90;1.10;;;9.80;99.90;;;;;;5078876;28;20040;-62
2022/09/27 01:56:34;;;;;;;6.65;0.90;;;9.90;99.90;;;;;;5078129;28;20052;-61
2022/09/27 01:59:24;;;;;;;5.65;1.05;;;9.50;99.90;;;;;;5078791;28;20059;-57
2022/09/27 02:01:51;;;;;;;6.72;1.45;;;9.50;99.90;;;;;;5078447;28;20412;-59
2022/09/27 02:04:23;;;;;;;5.90;0.90;;;9.60;99.90;;;;;;5078284;28;20041;-60
2022/09/27 02:06:58;;;;;;;11.10;1.48;;;9.60;99.90;;;;;;5078680;28;20152;-59
2022/09/27 02:09:42;;;;;;;8.98;0.93;;;9.80;99.90;;;;;;5077690;28;20505;-60
2022/09/27 02:12:12;;;;;;;3.25;0.70;;;9.80;99.90;;;;;;5078647;28;20059;-60
2022/09/27 02:15:04;;;;;;;5.00;0.65;;;9.50;99.90;;;;;;5078341;28;20028;-59
2022/09/27 02:17:42;;;;;;;6.32;0.82;;;9.60;99.90;;;;;;5073206;28;20131;-60
2022/09/27 02:20:25;;;;;;;8.93;0.85;;;9.60;99.90;;;;;;5078058;28;20044;-61
2022/09/27 02:23:10;;;;;;;3.33;0.63;;;9.40;99.90;;;;;;5078090;28;20066;-62
2022/09/27 02:25:40;;;;;;;8.20;1.02;;;9.60;99.90;;;;;;5078390;28;20040;-61
2022/09/27 02:28:18;;;;;;;4.05;0.73;;;9.60;99.90;;;;;;5077255;28;20095;-60
2022/09/27 02:30:44;;;;;;;8.93;1.90;;;9.30;99.90;;;;;;5076418;28;20048;-60
2022/09/27 02:33:10;;;;;;;5.70;0.80;;;9.30;99.90;;;;;;5078396;28;20064;-60
2022/09/27 02:35:35;;;;;;;5.10;0.85;;;9.50;99.90;;;;;;5077852;28;20044;-59
2022/09/27 02:38:04;;;;;;;8.75;1.60;;;9.10;99.90;;;;;;5070294;28;20514;-59
2022/09/27 02:40:33;;;;;;;6.07;2.00;;;9.40;99.90;;;;;;5066221;28;20060;-59
2022/09/27 02:43:01;;;;;;;9.80;1.45;;;9.20;99.90;;;;;;5077887;28;20093;-59
2022/09/27 02:45:35;;;;;;;7.03;1.75;;;9.40;99.90;;;;;;5077157;28;20051;-59
2022/09/27 02:48:28;;;;;;;6.38;1.00;;;9.40;99.90;;;;;;5081432;28;20083;-58
2022/09/27 02:51:16;;;;;;;8.45;1.20;;;9.50;99.90;;;;;;5082134;28;20048;-59
2022/09/27 02:54:03;;;;;;;10.50;1.25;;;9.50;99.90;;;;;;5082073;28;20048;-58
2022/09/27 02:56:29;;;;;;;7.53;1.35;;;9.60;99.90;;;;;;5079620;28;20048;-61
2022/09/27 02:59:19;;;;;;;11.50;1.40;;;9.30;99.90;;;;;;5081666;28;20057;-64
2022/09/27 03:02:13;;;;;;;9.43;1.30;;;9.20;99.90;;;;;;5081197;28;20090;-63
2022/09/27 03:04:47;;;;;;;9.45;1.00;;;9.50;99.90;;;;;;5079539;28;20053;-64
2022/09/27 03:07:15;;;;;;;8.23;1.27;;;9.50;99.90;;;;;;5081524;28;20056;-63
2022/09/27 03:09:49;;;;;;;10.50;2.75;;;9.40;99.90;;;;;;5080716;28;20096;-63
2022/09/27 03:12:21;;;;;;;5.43;1.10;;;9.00;99.90;;;;;;5081241;28;20088;-63
2022/09/27 03:14:48;;;;;;;7.07;1.00;;;9.40;99.90;;;;;;5079889;28;20028;-63
2022/09/27 03:17:14;;;;;;;5.63;0.80;;;9.20;99.90;;;;;;5080874;28;20044;-63
2022/09/27 03:19:39;;;;;;;5.72;1.17;;;8.80;99.90;;;;;;5081590;28;20230;-63
2022/09/27 03:22:05;;;;;;;9.18;1.00;;;9.10;99.90;;;;;;5080559;28;20044;-63
2022/09/27 03:24:31;;;;;;;7.68;1.35;;;9.10;99.90;;;;;;5081196;28;20033;-64
2022/09/27 03:26:57;;;;;;;5.97;1.15;;;9.10;99.90;;;;;;5079151;28;20041;-63
2022/09/27 03:29:22;;;;;;;7.00;1.08;;;8.80;99.90;;;;;;5079896;28;20047;-63
2022/09/27 03:31:48;;;;;;;8.50;1.33;;;9.10;99.90;;;;;;5080902;28;20044;-63
2022/09/27 03:34:14;;;;;;;8.68;1.63;;;9.10;99.90;;;;;;5079308;28;20062;-63
2022/09/27 03:36:39;;;;;;;6.55;0.80;;;8.80;99.90;;;;;;5081361;28;20040;-63
2022/09/27 03:39:05;;;;;;;6.82;1.20;;;9.00;99.90;;;;;;5062930;28;20102;-61
2022/09/27 03:41:31;;;;;;;11.88;1.25;;;9.00;99.90;;;;;;5077954;28;20045;-60
2022/09/27 03:43:58;;;;;;;13.13;1.27;;;8.70;99.90;;;;;;5080333;28;20037;-60
2022/09/27 03:46:24;;;;;;;6.97;1.10;;;8.70;99.90;;;;;;5079726;28;20099;-59
2022/09/27 03:48:50;;;;;;;10.27;1.20;;;9.10;99.90;;;;;;5080666;28;20033;-60
2022/09/27 03:51:16;;;;;;;9.23;1.10;;;8.80;99.90;;;;;;5080316;28;20036;-60
2022/09/27 03:53:41;;;;;;;9.52;1.40;;;8.80;99.90;;;;;;5079762;28;20500;-59
2022/09/27 03:56:07;;;;;;;13.63;2.45;;;8.70;99.90;;;;;;5078499;28;20045;-62
2022/09/27 03:58:33;;;;;;;9.18;1.30;;;9.00;99.90;;;;;;5078459;28;20044;-64
2022/09/27 04:00:59;;;;;;;8.27;1.20;;;8.80;99.90;;;;;;5080061;28;20049;-63
2022/09/27 04:03:25;;;;;;;9.77;1.23;;;8.80;99.90;;;;;;5080359;28;20041;-63
2022/09/27 04:05:52;;;;;;;10.23;1.80;;;9.20;99.90;;;;;;5079988;28;20053;-62
2022/09/27 04:08:19;;;;;;;9.23;1.10;;;9.30;99.90;;;;;;5080222;28;20112;-62
2022/09/27 04:10:45;;;;;;;11.13;2.30;;;8.80;99.90;;;;;;5078632;28;20064;-63
2022/09/27 04:13:11;;;;;;;10.20;1.20;;;9.00;99.90;;;;;;5079228;28;20170;-61
2022/09/27 04:15:38;;;;;;;7.25;1.10;;;9.20;99.90;;;;;;5080541;28;20044;-60
2022/09/27 04:18:04;;;;;;;9.20;1.90;;;9.00;99.90;;;;;;5079700;28;20045;-60
2022/09/27 04:20:30;;;;;;;6.28;1.10;;;8.80;99.90;;;;;;5078619;28;20091;-60
2022/09/27 04:22:56;;;;;;;7.18;1.15;;;9.20;99.90;;;;;;5078230;28;20044;-60
2022/09/27 04:25:22;;;;;;;7.95;1.02;;;9.20;99.90;;;;;;5079740;28;20438;-60
2022/09/27 04:27:50;;;;;;;7.47;1.55;;;9.20;99.90;;;;;;5080198;28;20048;-59
2022/09/27 04:30:16;;;;;;;9.60;1.50;;;9.00;99.90;;;;;;5078807;28;20445;-62
2022/09/27 04:32:43;;;;;;;8.90;1.13;;;8.80;99.90;;;;;;5080325;28;20041;-62
2022/09/27 04:37:53;;;;;;;5.07;0.82;;;8.80;99.90;;;;;;5074095;28;20099;-61
2022/09/27 04:40:21;;;;;;;9.30;1.10;;;9.20;99.90;;;;;;5065020;28;20048;-59
2022/09/27 04:42:47;;;;;;;7.05;0.93;;;9.20;99.90;;;;;;5079113;28;20057;-59
2022/09/27 04:45:13;;;;;;;5.63;1.00;;;9.20;99.90;;;;;;5080241;28;20032;-59
2022/09/27 04:47:49;;;;;;;7.10;1.10;;;9.10;99.90;;;;;;5078583;28;20055;-59
2022/09/27 04:50:16;;;;;;;6.07;1.15;;;9.10;99.90;;;;;;5079835;28;20481;-61
2022/09/27 04:52:42;;;;;;;5.78;0.90;;;9.20;99.90;;;;;;5077425;28;20094;-62
2022/09/27 04:55:09;;;;;;;7.68;1.30;;;8.90;99.90;;;;;;5078276;28;20426;-64
2022/09/27 04:57:35;;;;;;;8.38;1.15;;;9.10;99.90;;;;;;5079199;28;20048;-62
2022/09/27 05:00:02;;;;;;;6.00;1.10;;;9.20;99.90;;;;;;5077507;28;20085;-63
2022/09/27 05:02:28;;;;;;;9.52;2.03;;;8.90;99.90;;;;;;5079532;28;20040;-62
2022/09/27 05:04:58;;;;;;;3.40;0.75;;;9.50;99.90;;;;;;5078483;28;20114;-62
2022/09/27 05:07:27;;;;;;;9.02;1.10;;;9.00;99.90;;;;;;5079272;28;20040;-62
2022/09/27 05:09:53;;;;;;;6.35;0.98;;;8.80;99.90;;;;;;5078288;28;20040;-62
2022/09/27 05:12:20;;;;;;;6.53;1.00;;;9.00;99.90;;;;;;5075911;28;20059;-62
2022/09/27 05:14:46;;;;;;;8.50;1.05;;;8.90;99.90;;;;;;5075423;28;20040;-63
2022/09/27 05:17:12;;;;;;;7.15;0.95;;;8.70;99.90;;;;;;5074600;28;20090;-63
2022/09/27 05:19:38;;;;;;;6.15;0.90;;;8.90;99.90;;;;;;5075614;28;20108;-63
2022/09/27 05:22:07;;;;;;;3.15;0.90;;;8.70;99.90;;;;;;5073241;28;20083;-63
2022/09/27 05:24:33;;;;;;;7.35;1.30;;;8.90;99.90;;;;;;5075246;28;20056;-63
2022/09/27 05:26:59;;;;;;;5.30;1.17;;;8.90;99.90;;;;;;5074507;28;20059;-63
2022/09/27 05:29:25;;;;;;;7.05;0.98;;;9.00;99.90;;;;;;5075328;28;20044;-63
2022/09/27 05:31:51;;;;;;;5.40;1.00;;;8.70;99.90;;;;;;5074950;28;20052;-63
2022/09/27 05:34:19;;;;;;;5.05;1.30;;;9.00;99.90;;;;;;5075002;28;20049;-63
2022/09/27 05:36:48;;;;;;;8.90;1.23;;;9.10;99.90;;;;;;5075191;28;20036;-63
2022/09/27 05:39:15;;;;;;;7.53;1.00;;;8.90;99.90;;;;;;5074187;28;20315;-63
2022/09/27 05:41:42;;;;;;;5.13;1.42;;;9.20;99.90;;;;;;5075238;28;20044;-63
2022/09/27 05:44:08;;;;;;;8.85;1.92;;;9.10;99.90;;;;;;5074406;28;20056;-62
2022/09/27 05:46:33;;;;;;;7.18;1.20;;;9.10;99.90;;;;;;5075263;28;20045;-62
2022/09/27 05:48:59;;;;;;;9.32;1.25;;;9.10;99.90;;;;;;5074667;28;20053;-62
2022/09/27 05:51:25;;;;;;;5.22;1.10;;;9.20;99.90;;;;;;5074323;28;20083;-62
2022/09/27 05:53:50;;;;;;;3.83;1.05;;;8.80;99.90;;;;;;5075378;28;20055;-61
2022/09/27 05:56:16;;;;;;;4.85;0.90;;;9.20;99.90;;;;;;5076294;28;20450;-61
2022/09/27 05:58:42;;;;;;;7.53;1.20;;;9.00;99.90;;;;;;5078418;28;20052;-61
2022/09/27 06:01:09;;;;;;;8.07;1.17;;;8.80;99.90;;;;;;5077632;28;20087;-61
2022/09/27 06:03:35;;;;;;;8.30;2.33;;;9.00;99.90;;;;;;5078755;28;20101;-60
2022/09/27 06:06:04;;;;;;;6.50;1.35;;;8.90;99.90;;;;;;5060349;28;20049;-60
2022/09/27 06:08:35;;;;;;;6.15;1.20;;;8.90;99.90;;;;;;5076807;28;20036;-59
2022/09/27 06:11:07;;;;;;;9.60;1.67;;;8.90;99.90;;;;;;5078473;28;20101;-59
2022/09/27 06:13:33;;;;;;;9.17;1.37;;;9.00;99.90;;;;;;5077834;28;20120;-59
2022/09/27 06:15:58;;;;;;;10.65;2.15;;;9.40;99.90;;;;;;5078975;28;20329;-59
2022/09/27 06:18:24;;;;;;;7.38;1.10;;;9.50;99.90;;;;;;5077939;28;20036;-59
2022/09/27 06:20:50;;;;;;;7.53;1.00;;;9.10;99.90;;;;;;5079743;28;20515;-59
2022/09/27 06:23:23;;;;;;;4.15;0.95;;;9.50;99.90;;;;;;5082266;28;20045;-59
2022/09/27 06:25:50;;;;;;;5.85;1.10;;;9.10;99.90;;;;;;5081383;28;20053;-59
2022/09/27 06:28:17;;;;;;;5.55;1.00;;;9.50;99.90;;;;;;5082299;28;20052;-59
2022/09/27 06:30:44;;;;;;;7.55;1.50;;;9.50;99.90;;;;;;5081504;28;20045;-58
2022/09/27 06:33:14;;;;;;;7.00;1.08;;;9.50;99.90;;;;;;5082365;28;20032;-58
2022/09/27 06:35:44;;;;;;;6.75;0.90;;;8.70;99.90;;;;;;5081279;28;20037;-58
2022/09/27 06:38:15;;;;;;;7.00;1.13;;;8.90;99.90;;;;;;5073793;28;20048;-59
2022/09/27 06:40:44;;;;;;;9.30;1.23;;;9.20;99.90;;;;;;5071954;28;20040;-58
2022/09/27 06:43:11;;;;;;;5.60;1.05;;;8.70;99.90;;;;;;5081013;28;20520;-59
2022/09/27 06:45:37;;;;;;;7.13;1.30;;;9.30;99.90;;;;;;5082144;28;20064;-58
2022/09/27 06:48:05;;;;;;;7.93;1.10;;;8.90;99.90;;;;;;5080989;28;20051;-58
2022/09/27 06:50:33;;;;;;;5.40;1.13;;;9.40;99.90;;;;;;5082315;28;20193;-58
2022/09/27 06:52:59;;;;;;;10.30;1.33;;;9.10;99.90;;;;;;5081210;28;20401;-57
2022/09/27 06:55:25;;;;;;;8.55;1.20;;;8.90;99.90;;;;;;5081439;28;20111;-58
2022/09/27 07:00:44;;;;;;;8.50;1.48;;;9.40;99.90;;;;;;5080785;28;20471;-58
2022/09/27 07:03:10;;;;;;;6.65;1.10;;;9.40;99.90;;;;;;5081926;28;20742;-58
2022/09/27 07:05:43;;;;;;;7.38;1.20;;;8.90;99.90;;;;;;5080495;28;20066;-57
2022/09/27 07:08:11;;;;;;;7.05;1.40;;;8.90;99.90;;;;;;5081096;28;20041;-58
2022/09/27 07:10:39;;;;;;;8.40;1.38;;;8.90;99.90;;;;;;5080877;28;20041;-58
2022/09/27 07:13:09;;;;;;;9.77;1.30;;;9.30;99.90;;;;;;5081027;28;20102;-58
2022/09/27 07:15:36;;;;;;;4.25;1.15;;;9.20;99.90;;;;;;5081494;28;20045;-58
2022/09/27 07:18:03;;;;;;;4.80;1.00;;;9.00;99.90;;;;;;5077995;28;20047;-58
2022/09/27 07:20:30;;;;;;;5.40;1.10;;;9.10;99.90;;;;;;5077445;28;20040;-59
2022/09/27 07:22:56;;;;;;;7.75;1.00;;;9.40;99.90;;;;;;5076901;28;20045;-58
2022/09/27 07:25:23;;;;;;;6.05;1.10;;;9.80;99.90;;;;;;5076101;28;20044;-61
2022/09/27 07:27:49;;;;;;;6.10;0.90;;;9.70;99.90;;;;;;5077554;28;20037;-62
2022/09/27 07:30:15;;;;;;;5.88;1.05;;;9.20;99.90;;;;;;5074773;28;20052;-63
2022/09/27 07:32:42;;;;;;;4.38;0.93;;;9.50;99.90;;;;;;5076341;28;20060;-63
2022/09/27 07:35:09;;;;;;;6.78;1.08;;;9.60;99.90;;;;;;5077039;28;20036;-62
2022/09/27 07:37:36;;;;;;;4.13;0.82;;;9.50;99.90;;;;;;5072850;28;20045;-61
2022/09/27 07:40:06;;;;;;;4.97;1.20;;;9.30;99.90;;;;;;5061418;28;20128;-62
2022/09/27 07:42:32;;;;;;;6.95;1.30;;;9.10;99.90;;;;;;5075945;28;20053;-62
2022/09/27 07:44:58;;;;;;;5.82;1.80;;;9.40;99.90;;;;;;5077135;28;20052;-63
2022/09/27 07:47:24;;;;;;;5.03;1.30;;;9.40;99.90;;;;;;5074262;28;20048;-64
2022/09/27 07:49:54;;;;;;;5.32;0.90;;;9.20;99.90;;;;;;5074638;28;20044;-63
2022/09/27 07:52:21;;;;;;;4.47;0.73;;;9.20;99.90;;;;;;5076346;28;20037;-63
2022/09/27 07:54:47;;;;;;;4.57;0.90;;;9.40;99.90;;;;;;5076710;28;20036;-61
2022/09/27 07:57:16;;;;;;;5.40;1.00;;;9.40;99.90;;;;;;5076562;28;20250;-59
2022/09/27 07:59:41;;;;;;;2.45;0.75;;;9.40;99.90;;;;;;5058170;28;20094;-60
2022/09/27 08:02:15;;;;;;;4.53;0.90;;;9.20;99.90;;;;;;5058534;28;20048;-60
2022/09/27 08:04:42;;;;;;;3.92;0.70;;;9.40;99.90;;;;;;5075949;28;20052;-59
2022/09/27 08:07:09;;;;;;;2.28;1.17;;;9.40;99.90;;;;;;5076815;28;20405;-59
2022/09/27 08:09:35;;;;;;;6.03;0.98;;;9.70;99.90;;;;;;5076198;28;20568;-59
2022/09/27 08:12:03;;;;;;;4.22;1.00;;;9.50;99.90;;;;;;5076801;28;20124;-59
2022/09/27 08:14:29;;;;;;;4.82;0.75;;;9.80;99.90;;;;;;5058382;28;20715;-58
2022/09/27 08:16:55;;;;;;;4.40;1.00;;;9.90;99.90;;;;;;5076181;28;20288;-59
2022/09/27 08:19:21;;;;;;;3.95;0.85;;;9.80;99.90;;;;;;5076295;28;20063;-58
2022/09/27 08:21:46;;;;;;;6.00;0.85;;;9.90;99.90;;;;;;5075931;28;20040;-60
2022/09/27 08:24:12;;;;;;;7.93;1.17;;;9.90;99.90;;;;;;5076654;28;20047;-61
2022/09/27 08:26:38;;;;;;;7.68;1.10;;;9.80;99.90;;;;;;5075708;28;20044;-60
2022/09/27 08:29:04;;;;;;;7.82;1.83;;;9.80;99.90;;;;;;5076527;28;20045;-60
2022/09/27 08:31:29;;;;;;;6.68;0.88;;;9.90;99.90;;;;;;5075714;28;20140;-60
2022/09/27 08:33:56;;;;;;;6.40;1.10;;;9.90;99.90;;;;;;5076240;28;20040;-59
2022/09/27 08:36:23;;;;;;;3.72;0.93;;;9.90;99.90;;;;;;5075635;28;20734;-59
2022/09/27 08:38:49;;;;;;;5.70;1.20;;;10.20;99.90;;;;;;5072835;28;20059;-59
2022/09/27 08:41:37;;;;;;;7.45;0.90;;;9.90;99.90;;;;;;5075537;28;20040;-59
2022/09/27 08:44:08;;;;;;;3.75;1.00;;;10.20;99.90;;;;;;5074189;28;20052;-59
2022/09/27 08:47:07;;;;;;;5.30;1.00;;;10.40;99.90;;;;;;5073718;28;20045;-59
2022/09/27 08:49:42;;;;;;;4.13;0.95;;;10.20;99.90;;;;;;5065718;28;20055;-59
2022/09/27 08:52:19;;;;;;;5.22;0.90;;;10.40;99.90;;;;;;5075124;28;20460;-58
2022/09/27 08:54:45;;;;;;;4.57;0.85;;;10.20;99.90;;;;;;5075407;28;20408;-59
2022/09/27 08:57:12;;;;;;;5.05;0.90;;;10.70;99.90;;;;;;5074779;28;20044;-58
2022/09/27 08:59:49;;;;;;;6.63;1.02;;;10.50;99.90;;;;;;5075001;28;20527;-58
2022/09/27 09:02:26;;;;;;;5.50;1.17;;;10.40;99.90;;;;;;5075491;28;20396;-58
2022/09/27 09:05:38;;;;;;;3.60;1.00;;;10.90;99.90;;;;;;5071718;28;20538;-58
2022/09/27 09:08:28;;;;;;;2.65;0.80;;;10.50;99.90;;;;;;5062927;28;20053;-59
2022/09/27 09:14:12;;;;;;;2.13;0.45;;;10.70;99.90;;;;;;5053950;28;20280;-58
2022/09/27 09:16:59;;;;;;;3.67;0.60;;;10.30;99.90;;;;;;5055537;28;20243;-58
2022/09/27 09:19:48;;;;;;;4.80;0.75;;;10.10;99.90;;;;;;5058176;28;20489;-60
2022/09/27 09:22:20;;;;;;;4.78;1.00;;;10.00;99.90;;;;;;5058671;28;20045;-63
2022/09/27 09:25:35;;;;;;;4.65;0.93;;;9.80;99.90;;;;;;5059170;28;20037;-63
2022/09/27 09:28:10;;;;;;;7.70;1.17;;;9.90;99.90;;;;;;5059048;28;20055;-62
2022/09/27 09:31:06;;;;;;;2.80;0.68;;;9.90;99.90;;;;;;5058170;28;20040;-62
2022/09/27 09:33:55;;;;;;;6.43;0.80;;;9.80;99.90;;;;;;5055205;28;20052;-62
2022/09/27 09:36:33;;;;;;;2.65;0.60;;;9.80;99.90;;;;;;5072823;28;20527;-63
2022/09/27 09:39:09;;;;;;;3.10;0.40;;;9.50;99.90;;;;;;5076872;28;20044;-62
2022/09/27 09:41:59;;;;;;;3.75;0.60;;;9.50;99.90;;;;;;5076305;28;20048;-60
2022/09/27 09:44:56;;;;;;;2.22;0.60;;;9.50;99.90;;;;;;5075732;28;20052;-60
2022/09/27 09:47:39;;;;;;;1.63;0.55;;;9.70;99.90;;;;;;5077324;28;20051;-60
2022/09/27 09:50:22;;;;;;;1.80;0.45;;;10.00;99.90;;;;;;5078098;28;20151;-59
2022/09/27 09:52:55;;;;;;;2.55;0.57;;;10.00;99.90;;;;;;5077556;28;20041;-60
2022/09/27 09:55:24;;;;;;;1.60;0.50;;;10.00;99.90;;;;;;5077337;28;20079;-59
2022/09/27 09:58:32;;;;;;;2.33;0.60;;;10.20;99.90;;;;;;5083009;28;20106;-59
2022/09/27 10:01:09;;;;;;;4.97;0.65;;;10.30;99.90;;;;;;5061699;28;20063;-59
2022/09/27 10:03:34;;;;;;;2.88;0.50;;;10.40;99.90;;;;;;5082639;28;20045;-59
2022/09/27 10:06:00;;;;;;;4.43;1.33;;;10.50;99.90;;;;;;5082620;28;20036;-58
2022/09/27 10:08:26;;;;;;;5.25;0.73;;;10.40;99.90;;;;;;5081996;28;20044;-59
2022/09/27 10:10:51;;;;;;;4.03;0.68;;;10.60;99.90;;;;;;5082853;28;20055;-58
2022/09/27 10:13:19;;;;;;;5.05;0.63;;;10.80;99.90;;;;;;5081797;28;20503;-59
2022/09/27 10:16:01;;;;;;;5.95;0.60;;;10.80;99.90;;;;;;5082556;28;20072;-58
2022/09/27 10:18:28;;;;;;;4.43;1.13;;;10.80;99.90;;;;;;5082070;28;20048;-58
2022/09/27 10:21:03;;;;;;;5.63;0.60;;;10.50;99.90;;;;;;5080265;28;20052;-58
2022/09/27 10:23:29;;;;;;;2.33;0.52;;;10.40;99.90;;;;;;5080362;28;20045;-59
2022/09/27 10:25:55;;;;;;;3.35;0.50;;;10.80;99.90;;;;;;5081003;28;20081;-61
2022/09/27 10:28:26;;;;;;;3.88;0.68;;;10.50;99.90;;;;;;5082107;28;20040;-61
2022/09/27 10:30:57;;;;;;;1.88;0.60;;;10.50;99.90;;;;;;5081461;28;20578;-61
2022/09/27 10:33:23;;;;;;;3.78;0.70;;;10.30;99.90;;;;;;5081876;28;20909;-62
2022/09/27 10:35:49;;;;;;;1.80;0.50;;;10.00;99.90;;;;;;5081578;28;20033;-62
2022/09/27 10:38:20;;;;;;;2.47;0.43;;;10.20;99.90;;;;;;5080864;28;20484;-61
2022/09/27 10:40:47;;;;;;;4.63;0.65;;;10.10;99.90;;;;;;5079162;28;20045;-59
2022/09/27 10:43:34;;;;;;;3.58;0.50;;;9.90;99.90;;;;;;5081328;28;20053;-59
2022/09/27 10:46:05;;;;;;;2.17;0.30;;;9.90;99.90;;;;;;5082394;28;20044;-60
2022/09/27 10:48:30;;;;;;;3.88;0.50;;;10.00;99.90;;;;;;5081236;28;20032;-64
2022/09/27 10:51:03;;;;;;;0.88;0.45;;;9.60;99.90;;;;;;5081200;28;20087;-61
2022/09/27 10:53:31;;;;;;;3.88;1.23;;;10.00;99.90;;;;;;5078544;28;20040;-60
2022/09/27 10:55:57;;;;;;;1.02;0.40;;;9.80;99.90;;;;;;5079925;28;20032;-60
2022/09/27 10:58:35;;;;;;;3.88;0.63;;;9.70;99.90;;;;;;5081233;28;20048;-59
2022/09/27 11:01:11;;;;;;;1.77;0.43;;;9.80;99.90;;;;;;5080298;28;20032;-59
2022/09/27 11:03:45;;;;;;;5.18;0.60;;;9.90;99.90;;;;;;5081060;28;20566;-60
2022/09/27 11:06:23;;;;;;;2.17;0.60;;;9.80;99.90;;;;;;5079729;28;20050;-59
2022/09/27 11:08:51;;;;;;;3.65;0.98;;;9.90;99.90;;;;;;5078203;28;20064;-59
2022/09/27 11:11:27;;;;;;;3.47;0.65;;;9.70;99.90;;;;;;5081161;28;20115;-59
2022/09/27 11:14:23;;;;;;;3.13;0.60;;;10.10;99.90;;;;;;5078694;28;20471;-58
2022/09/27 11:17:09;;;;;;;3.95;0.98;;;10.20;99.90;;;;;;5078588;28;20044;-58
2022/09/27 11:20:18;;;;;;;3.05;0.60;;;10.00;99.90;;;;;;5079431;28;20059;-58
2022/09/27 11:23:10;;;;;;;3.83;0.90;;;10.40;99.90;;;;;;5053777;28;20074;-57
2022/09/27 11:26:04;;;;;;;5.03;1.02;;;10.30;99.90;;;;;;5076558;28;20068;-58
2022/09/27 11:28:37;;;;;;;7.40;1.00;;;10.50;99.90;;;;;;5061639;28;20079;-58
2022/09/27 11:31:11;;;;;;;4.38;0.80;;;10.70;99.90;;;;;;5060516;28;20041;-57
2022/09/27 11:33:55;;;;;;;3.67;0.70;;;10.90;99.90;;;;;;5061661;28;20524;-58
2022/09/27 11:36:48;;;;;;;1.88;0.40;;;11.10;99.90;;;;;;5078012;28;20799;-57
2022/09/27 11:39:22;;;;;;;0.40;0.40;;;10.30;99.90;;;;;;5078361;28;20044;-62
2022/09/27 11:42:02;;;;;;;2.58;0.47;;;9.90;99.90;;;;;;5080920;28;20036;-62
2022/09/27 11:44:41;;;;;;;2.63;0.60;;;9.90;99.90;;;;;;5078718;28;20060;-63
2022/09/27 11:47:27;;;;;;;1.52;0.50;;;9.60;99.90;;;;;;5078316;28;20468;-63
2022/09/27 11:50:12;;;;;;;1.90;0.40;;;9.60;99.90;;;;;;5080136;28;20052;-59
2022/09/27 11:52:55;;;;;;;2.97;0.47;;;10.00;99.90;;;;;;5078548;28;20091;-60
2022/09/27 11:55:51;;;;;;;2.95;0.60;;;10.20;99.90;;;;;;5080333;28;20055;-59
2022/09/27 11:59:08;;;;;;;4.18;0.63;;;10.30;99.90;;;;;;5079250;28;20060;-57
2022/09/27 12:01:58;;;;;;;3.47;1.33;;;10.20;99.90;;;;;;5061973;28;20067;-58
2022/09/27 12:05:12;;;;;;;5.40;0.80;;;10.40;99.90;;;;;;5079544;28;20048;-58
2022/09/27 12:07:47;;;;;;;5.30;0.90;;;10.40;99.90;;;;;;5075443;28;20084;-58
2022/09/27 12:10:16;;;;;;;7.22;0.90;;;10.50;99.90;;;;;;5079840;28;20051;-58
2022/09/27 12:12:45;;;;;;;5.75;0.82;;;10.70;99.90;;;;;;5080035;28;20123;-58
2022/09/27 12:15:18;;;;;;;7.60;0.95;;;10.50;99.90;;;;;;5080352;28;20075;-57
2022/09/27 12:17:59;;;;;;;8.10;0.95;;;10.90;99.90;;;;;;5079522;28;20096;-58
2022/09/27 12:20:30;;;;;;;2.10;0.80;;;11.20;99.90;;;;;;5080168;28;20052;-58
2022/09/27 12:23:04;;;;;;;4.40;0.65;;;11.10;99.90;;;;;;5079658;28;20043;-56
2022/09/27 12:25:36;;;;;;;5.25;0.85;;;11.10;99.90;;;;;;5079474;28;20044;-58
2022/09/27 12:28:28;;;;;;;1.88;0.65;;;11.30;99.90;;;;;;5080012;28;20052;-57
2022/09/27 12:31:00;;;;;;;7.28;0.82;;;11.20;99.90;;;;;;5079280;28;20044;-57
2022/09/27 12:33:33;;;;;;;2.20;0.85;;;11.40;99.90;;;;;;5080270;28;20040;-58
2022/09/27 12:36:05;;;;;;;4.57;0.90;;;11.20;99.90;;;;;;5079631;28;20055;-57
2022/09/27 12:38:43;;;;;;;2.72;0.70;;;11.10;99.90;;;;;;5079267;28;20052;-57
2022/09/27 12:41:12;;;;;;;3.42;0.50;;;11.30;99.90;;;;;;5078997;28;20060;-58
2022/09/27 12:43:47;;;;;;;1.70;0.60;;;11.10;99.90;;;;;;5079117;28;20036;-57
2022/09/27 12:46:53;;;;;;;2.95;0.60;;;11.20;99.90;;;;;;5080027;28;20048;-57
2022/09/27 12:49:32;;;;;;;3.63;0.55;;;11.10;99.90;;;;;;5058731;28;20102;-57
2022/09/27 12:52:02;;;;;;;1.95;0.60;;;11.00;99.90;;;;;;5079002;28;20052;-57
2022/09/27 12:54:49;;;;;;;4.20;0.75;;;10.90;99.90;;;;;;5079623;28;20059;-58
2022/09/27 12:57:31;;;;;;;3.47;0.73;;;11.00;99.90;;;;;;5077484;28;20083;-58
2022/09/27 13:00:13;;;;;;;;;;;10.90;99.90;;;;;;5079126;28;20075;-58
2022/09/27 13:03:01;;;;;;;2.53;0.57;;;10.80;99.90;;;;;;5079549;28;19921;-58
2022/09/27 13:05:41;;;;;;;1.55;0.47;;;10.90;99.90;;;;;;5078939;28;20407;-58
2022/09/27 13:08:34;;;;;;;3.15;0.57;;;10.90;99.90;;;;;;5078967;28;20482;-58
2022/09/27 13:11:16;;;;;;;4.50;0.60;;;10.80;99.90;;;;;;5079506;28;20550;-58
2022/09/27 13:13:42;;;;;;;5.15;0.70;;;10.70;99.90;;;;;;5078622;28;20100;-58
2022/09/27 13:16:09;;;;;;;4.10;0.57;;;10.50;99.90;;;;;;5078129;28;20041;-58
2022/09/27 13:18:34;;;;;;;4.03;0.70;;;10.20;99.90;;;;;;5078836;28;20039;-59
2022/09/27 13:21:02;;;;;;;2.30;0.60;;;10.00;99.90;;;;;;5078813;28;20447;-63
2022/09/27 13:23:29;;;;;;;2.10;0.55;;;9.90;99.90;;;;;;5077882;28;20076;-62
2022/09/27 13:26:19;;;;;;;1.50;0.60;;;10.00;99.90;;;;;;5078077;28;20044;-63
2022/09/27 13:28:50;;;;;;;3.55;0.68;;;9.80;99.90;;;;;;5077780;28;20488;-62